Time;durP1;ratioP1;P1;durP2;ratioP2;P2;SDS_P1;SDS_P2;PMS_P1;PMS_P2;Temp;Humidity;BMP_temperature;BMP_pressure;BME280_temperature;BME280_humidity;BME280_pressure;Samples;Min_cycle;Max_cycle;Signal;HPM_P1;HPM_P2
2021/12/26 00:01:22;;;;;;;10.50;4.90;;;;;;;-9.50;81.34;96341.11;108024;1283;45507;-75
2021/12/26 00:03:51;;;;;;;10.20;5.30;;;;;;;-9.58;81.52;96345.69;107907;1284;29035;-75
2021/12/26 00:06:22;;;;;;;13.40;5.60;;;;;;;-9.62;81.34;96348.76;107931;1284;33562;-75
2021/12/26 00:08:54;;;;;;;14.10;6.20;;;;;;;-9.64;81.43;96342.70;107948;1281;29242;-74
2021/12/26 00:11:24;;;;;;;11.60;5.90;;;;;;;-9.61;81.66;96337.49;108088;1284;36888;-75
2021/12/26 00:13:55;;;;;;;13.40;6.50;;;;;;;-9.64;81.63;96339.20;108026;1283;33076;-75
2021/12/26 00:16:23;;;;;;;15.40;7.10;;;;;;;-9.69;81.63;96334.98;107868;1283;37288;-75
2021/12/26 00:18:52;;;;;;;13.80;7.10;;;;;;;-9.73;81.47;96337.62;107931;1283;36017;-75
2021/12/26 00:21:22;;;;;;;14.80;7.80;;;;;;;-9.70;81.42;96347.59;107906;1283;38634;-75
2021/12/26 00:23:51;;;;;;;16.50;8.10;;;;;;;-9.59;82.02;96345.58;107934;1283;35652;-75
2021/12/26 00:26:19;;;;;;;16.10;8.10;;;;;;;-9.47;82.11;96349.19;108099;1283;29154;-74
2021/12/26 00:28:47;;;;;;;14.80;7.80;;;;;;;-9.50;81.61;96350.48;107869;1281;38941;-75
2021/12/26 00:31:18;;;;;;;15.10;7.60;;;;;;;-9.53;81.30;96353.16;107933;1284;29157;-75
2021/12/26 00:33:47;;;;;;;13.60;7.10;;;;;;;-9.67;81.11;96350.55;107899;1283;34056;-75
2021/12/26 00:36:15;;;;;;;10.90;6.70;;;;;;;-9.86;80.89;96353.15;108077;1284;36117;-75
2021/12/26 00:38:44;;;;;;;12.20;6.10;;;;;;;-9.98;80.92;96352.74;107891;1282;40195;-75
2021/12/26 00:41:12;;;;;;;12.40;5.70;;;;;;;-10.04;81.14;96359.00;107923;1281;32144;-75
2021/12/26 00:43:40;;;;;;;14.10;6.30;;;;;;;-10.10;80.98;96361.30;107916;1283;36512;-75
2021/12/26 00:46:09;;;;;;;13.50;5.40;;;;;;;-10.13;81.27;96359.69;107873;1283;41550;-75
2021/12/26 00:48:37;;;;;;;9.10;4.80;;;;;;;-10.17;81.33;96360.25;107949;1282;31658;-75
2021/12/26 00:51:06;;;;;;;7.90;4.60;;;;;;;-10.18;81.46;96360.50;107941;1282;32503;-75
2021/12/26 00:53:34;;;;;;;13.40;4.80;;;;;;;-10.14;81.44;96357.61;107991;1281;29316;-75
2021/12/26 00:56:02;;;;;;;14.30;5.10;;;;;;;-10.14;81.71;96355.59;107988;1283;45390;-75
2021/12/26 00:58:30;;;;;;;11.20;5.10;;;;;;;-10.15;81.80;96352.05;107983;1281;32258;-75
2021/12/26 01:00:59;;;;;;;9.40;3.70;;;;;;;-10.17;81.94;96351.72;107896;1283;41397;-75
2021/12/26 01:03:27;;;;;;;7.00;3.40;;;;;;;-10.14;82.06;96348.73;107921;1282;37632;-75
2021/12/26 01:05:56;;;;;;;7.70;3.40;;;;;;;-10.11;82.16;96345.73;107910;1283;31129;-75
2021/12/26 01:08:27;;;;;;;4.40;2.70;;;;;;;-10.12;82.37;96348.58;107896;1284;36220;-75
2021/12/26 01:10:59;;;;;;;8.50;4.10;;;;;;;-10.10;82.46;96348.16;107940;1283;40033;-75
2021/12/26 01:13:32;;;;;;;9.30;4.20;;;;;;;-10.03;82.80;96342.79;107918;1284;40002;-75
2021/12/26 01:16:04;;;;;;;8.50;3.90;;;;;;;-10.00;82.89;96344.07;108009;1283;30927;-75
2021/12/26 01:18:37;;;;;;;8.20;4.00;;;;;;;-10.00;82.47;96339.91;108193;1282;37902;-75
2021/12/26 01:21:16;;;;;;;5.70;3.40;;;;;;;-10.05;82.31;96335.67;107934;1281;39462;-75
2021/12/26 01:23:49;;;;;;;18.20;5.50;;;;;;;-10.23;81.67;96335.74;107868;1283;34372;-75
2021/12/26 01:26:18;;;;;;;10.80;5.30;;;;;;;-10.47;81.30;96335.02;107917;1282;30238;-75
2021/12/26 01:28:46;;;;;;;13.20;4.90;;;;;;;-10.58;81.55;96334.52;107916;1284;37611;-75
2021/12/26 01:31:18;;;;;;;12.50;5.60;;;;;;;-10.53;82.14;96328.30;107961;1283;34091;-75
2021/12/26 01:33:48;;;;;;;10.10;6.40;;;;;;;-10.48;82.38;96326.19;108057;1283;35647;-75
2021/12/26 01:36:17;;;;;;;12.40;6.20;;;;;;;-10.47;82.64;96322.83;108090;1283;31132;-75
2021/12/26 01:38:45;;;;;;;8.60;4.20;;;;;;;-10.40;82.93;96321.64;108044;1280;33211;-75
2021/12/26 01:41:16;;;;;;;11.50;4.40;;;;;;;-10.32;83.14;96318.62;108059;1283;41444;-75
2021/12/26 01:43:47;;;;;;;15.10;6.30;;;;;;;-10.28;83.35;96314.72;108114;1283;29453;-75
2021/12/26 01:46:17;;;;;;;14.20;5.70;;;;;;;-10.22;83.55;96307.11;107888;1282;42762;-75
2021/12/26 01:48:45;;;;;;;14.90;6.30;;;;;;;-10.17;83.58;96305.40;107921;1284;32808;-75
2021/12/26 01:51:13;;;;;;;12.60;5.30;;;;;;;-10.13;83.51;96304.39;107937;1282;29895;-75
2021/12/26 01:53:42;;;;;;;9.50;4.50;;;;;;;-10.14;83.54;96305.11;107915;1283;41578;-76
2021/12/26 01:56:12;;;;;;;14.80;5.40;;;;;;;-10.15;83.31;96305.55;107893;1283;40808;-75
2021/12/26 01:58:41;;;;;;;16.90;6.70;;;;;;;-10.14;83.45;96302.80;108079;1282;36060;-75
2021/12/26 02:01:12;;;;;;;19.00;8.60;;;;;;;-10.20;83.18;96303.87;107924;1284;31224;-75
2021/12/26 02:03:42;;;;;;;17.80;8.80;;;;;;;-10.26;83.18;96305.48;108020;1279;36492;-75
2021/12/26 02:06:11;;;;;;;15.80;7.60;;;;;;;-10.29;83.01;96308.14;108029;1282;34836;-75
2021/12/26 02:08:39;;;;;;;14.20;8.20;;;;;;;-10.26;83.04;96309.27;108002;1284;37845;-75
2021/12/26 02:11:07;;;;;;;21.30;8.20;;;;;;;-10.21;82.99;96314.34;107938;1283;30029;-75
2021/12/26 02:13:37;;;;;;;20.70;9.30;;;;;;;-10.15;83.11;96317.57;107958;1283;39450;-75
2021/12/26 02:16:05;;;;;;;;;;;;;;;-10.13;82.74;96320.08;107930;1281;45288;-75
2021/12/26 02:18:35;;;;;;;14.20;6.80;;;;;;;-10.12;82.86;96320.98;108148;1279;35017;-75
2021/12/26 02:21:14;;;;;;;14.00;5.80;;;;;;;-10.13;82.70;96321.91;107987;1283;31192;-75
2021/12/26 02:23:48;;;;;;;29.00;11.60;;;;;;;-10.12;82.55;96325.98;107916;1284;37685;-75
2021/12/26 02:29:02;;;;;;;33.40;14.10;;;;;;;-10.17;82.33;96328.34;108124;1283;33467;-75
2021/12/26 02:31:30;;;;;;;17.50;8.90;;;;;;;-10.20;82.10;96335.73;107999;1282;36980;-75
2021/12/26 02:33:59;;;;;;;15.70;8.20;;;;;;;-10.27;81.67;96337.92;108070;1279;37977;-75
2021/12/26 02:36:27;;;;;;;17.10;8.20;;;;;;;-10.31;81.64;96333.90;107933;1283;34078;-75
2021/12/26 02:38:55;;;;;;;20.20;7.90;;;;;;;-10.30;81.67;96336.97;107888;1284;37366;-75
2021/12/26 02:41:23;;;;;;;14.50;7.40;;;;;;;-10.28;81.75;96336.12;107924;1283;37543;-75
2021/12/26 02:43:52;;;;;;;19.60;9.50;;;;;;;-10.38;81.30;96334.94;107904;1284;43818;-75
2021/12/26 02:46:20;;;;;;;24.00;10.80;;;;;;;-10.59;80.96;96340.17;107964;1281;34096;-75
2021/12/26 02:48:48;;;;;;;25.90;12.00;;;;;;;-10.73;80.82;96339.20;108056;1283;38719;-75
2021/12/26 02:51:17;;;;;;;21.70;10.50;;;;;;;-10.81;81.14;96341.48;107963;1281;29409;-75
2021/12/26 02:53:48;;;;;;;19.00;10.20;;;;;;;-10.85;81.53;96335.39;107892;1283;39384;-75
2021/12/26 02:56:18;;;;;;;18.00;8.90;;;;;;;-10.85;81.60;96331.14;108068;1282;36080;-75
2021/12/26 02:58:47;;;;;;;19.60;8.70;;;;;;;-10.82;81.91;96328.41;107960;1284;29098;-75
2021/12/26 03:01:17;;;;;;;17.90;7.20;;;;;;;-10.76;82.10;96324.46;107899;1281;34259;-75
2021/12/26 03:03:46;;;;;;;13.70;6.90;;;;;;;-10.70;82.05;96317.04;108071;1283;29785;-75
2021/12/26 03:06:20;;;;;;;14.50;6.80;;;;;;;-10.67;82.10;96318.30;107866;1281;37000;-75
2021/12/26 03:08:51;;;;;;;13.20;6.60;;;;;;;-10.72;81.82;96319.30;108084;1283;34011;-75
2021/12/26 03:11:19;;;;;;;14.70;6.30;;;;;;;-10.81;81.69;96322.48;107907;1283;37178;-75
2021/12/26 03:13:47;;;;;;;15.20;6.60;;;;;;;-10.80;81.93;96322.77;107917;1283;34886;-75
2021/12/26 03:16:18;;;;;;;12.40;5.70;;;;;;;-10.75;81.80;96321.30;108052;1282;50414;-75
2021/12/26 03:18:46;;;;;;;15.00;6.40;;;;;;;-10.87;81.41;96322.75;107924;1282;34940;-75
2021/12/26 03:21:15;;;;;;;17.90;6.90;;;;;;;-11.12;80.79;96330.20;107908;1283;41032;-75
2021/12/26 03:23:43;;;;;;;13.80;6.80;;;;;;;-11.27;80.68;96329.29;108108;1283;39227;-75
2021/12/26 03:26:11;;;;;;;12.60;6.00;;;;;;;-11.36;80.68;96327.80;107939;1282;34199;-75
2021/12/26 03:28:39;;;;;;;13.80;5.40;;;;;;;-11.44;80.91;96330.24;107908;1282;32821;-75
2021/12/26 03:31:07;;;;;;;15.80;6.10;;;;;;;-11.49;81.06;96330.64;107922;1283;32963;-75
2021/12/26 03:33:35;;;;;;;14.30;7.00;;;;;;;-11.56;81.25;96335.71;107922;1284;32600;-75
2021/12/26 03:36:05;;;;;;;14.30;6.90;;;;;;;-11.61;81.23;96334.69;107980;1283;36876;-75
2021/12/26 03:38:34;;;;;;;18.70;6.80;;;;;;;-11.61;81.45;96332.62;107984;1282;39171;-75
2021/12/26 03:41:02;;;;;;;13.20;5.80;;;;;;;-11.55;81.70;96334.47;108010;1282;27737;-75
2021/12/26 03:43:30;;;;;;;14.10;6.80;;;;;;;-11.45;82.02;96335.32;107988;1281;29355;-75
2021/12/26 03:45:59;;;;;;;17.70;7.10;;;;;;;-11.42;82.04;96333.00;107912;1283;38849;-75
2021/12/26 03:48:28;;;;;;;15.90;6.50;;;;;;;-11.46;81.88;96336.09;107936;1283;30814;-75
2021/12/26 03:50:58;;;;;;;19.30;7.40;;;;;;;-11.47;81.96;96341.64;107944;1281;35311;-75
2021/12/26 03:53:26;;;;;;;15.40;7.40;;;;;;;-11.41;82.25;96342.61;107896;1282;34774;-75
2021/12/26 03:55:54;;;;;;;12.90;6.30;;;;;;;-11.34;82.54;96338.52;107895;1283;39993;-75
2021/12/26 03:58:22;;;;;;;14.70;7.00;;;;;;;-11.25;82.98;96339.53;108056;1283;44811;-75
2021/12/26 04:00:52;;;;;;;15.60;7.40;;;;;;;-11.16;83.04;96345.29;107910;1283;37506;-75
2021/12/26 04:03:21;;;;;;;17.40;7.20;;;;;;;-11.14;82.80;96341.14;107919;1283;33953;-75
2021/12/26 04:05:49;;;;;;;19.90;8.10;;;;;;;-11.17;82.55;96346.46;108127;1284;32683;-75
2021/12/26 04:08:17;;;;;;;19.70;7.50;;;;;;;-11.20;82.61;96347.70;107939;1284;33008;-75
2021/12/26 04:10:45;;;;;;;22.00;8.70;;;;;;;-11.20;82.71;96349.94;107912;1284;42537;-75
2021/12/26 04:13:14;;;;;;;18.80;8.70;;;;;;;-11.18;82.72;96354.36;107949;1281;30494;-75
2021/12/26 04:15:42;;;;;;;20.20;9.30;;;;;;;-11.16;82.96;96360.64;108105;1282;37186;-76
2021/12/26 04:18:10;;;;;;;19.80;8.80;;;;;;;-11.13;82.99;96361.04;108093;1283;40345;-75
2021/12/26 04:20:39;;;;;;;18.90;9.00;;;;;;;-11.12;82.88;96361.80;107924;1283;35571;-76
2021/12/26 04:23:08;;;;;;;20.60;8.80;;;;;;;-11.10;82.99;96365.36;107915;1283;31833;-75
2021/12/26 04:25:36;;;;;;;18.50;7.90;;;;;;;-11.06;82.85;96370.02;108071;1283;41741;-75
2021/12/26 04:28:06;;;;;;;21.40;9.20;;;;;;;-11.00;82.81;96369.33;108028;1282;40164;-76
2021/12/26 04:30:35;;;;;;;21.00;9.10;;;;;;;-10.91;82.89;96373.19;107979;1281;33211;-75
2021/12/26 04:33:04;;;;;;;18.00;9.10;;;;;;;-10.88;82.68;96368.11;108159;1283;42028;-75
2021/12/26 04:35:32;;;;;;;18.50;8.20;;;;;;;-10.93;82.42;96368.92;107982;1284;32749;-75
2021/12/26 04:38:01;;;;;;;19.60;8.30;;;;;;;-11.00;81.95;96373.20;107968;1283;32477;-75
2021/12/26 04:40:29;;;;;;;19.50;8.60;;;;;;;-11.08;81.68;96375.70;107904;1283;35998;-75
2021/12/26 04:42:57;;;;;;;15.70;8.20;;;;;;;-11.12;81.55;96377.98;107887;1282;43421;-75
2021/12/26 04:45:26;;;;;;;17.80;9.10;;;;;;;-11.14;81.50;96377.95;107870;1283;42087;-75
2021/12/26 04:47:54;;;;;;;15.40;8.20;;;;;;;-11.11;81.53;96383.17;107930;1283;31007;-75
2021/12/26 04:50:27;;;;;;;14.80;7.90;;;;;;;-11.06;81.80;96383.75;108057;1282;39519;-75
2021/12/26 04:52:56;;;;;;;16.00;8.30;;;;;;;-11.04;81.66;96384.58;107941;1281;29946;-75
2021/12/26 04:55:26;;;;;;;15.30;7.20;;;;;;;-11.11;81.34;96383.71;108100;1282;33013;-75
2021/12/26 04:57:57;;;;;;;17.40;7.40;;;;;;;-11.13;81.36;96383.71;107969;1281;33764;-75
2021/12/26 05:00:28;;;;;;;21.10;7.70;;;;;;;-11.21;81.56;96382.08;107951;1284;30003;-75
2021/12/26 05:02:57;;;;;;;18.50;8.70;;;;;;;-11.36;81.28;96388.85;108134;1283;28747;-75
2021/12/26 05:05:27;;;;;;;23.40;9.20;;;;;;;-11.46;81.47;96390.34;107870;1283;37995;-75
2021/12/26 05:07:56;;;;;;;14.30;7.10;;;;;;;-11.46;81.80;96391.34;107948;1283;33196;-75
2021/12/26 05:10:27;;;;;;;15.80;8.00;;;;;;;-11.38;82.24;96392.80;108078;1283;32426;-75
2021/12/26 05:12:56;;;;;;;14.10;6.90;;;;;;;-11.29;82.59;96390.80;107874;1283;41337;-75
2021/12/26 05:15:25;;;;;;;15.40;6.50;;;;;;;-11.23;82.65;96391.15;107979;1281;31057;-75
2021/12/26 05:17:54;;;;;;;16.10;6.50;;;;;;;-11.20;82.72;96390.69;108086;1278;35750;-75
2021/12/26 05:20:23;;;;;;;;;;;;;;;-11.17;82.82;96392.14;107881;1280;41700;-75
2021/12/26 05:22:54;;;;;;;12.70;5.50;;;;;;;-11.14;82.59;96396.38;108106;1283;34460;-74
2021/12/26 05:25:23;;;;;;;13.20;5.70;;;;;;;-11.14;82.60;96392.95;107941;1283;33583;-75
2021/12/26 05:27:53;;;;;;;18.20;7.00;;;;;;;-11.11;82.61;96393.95;107906;1283;35925;-75
2021/12/26 05:30:23;;;;;;;13.20;7.00;;;;;;;-11.13;82.43;96392.77;108060;1283;41489;-75
2021/12/26 05:32:50;;;;;;;;;;;;;;;-11.18;82.31;96387.91;107878;1282;39169;-74
2021/12/26 05:35:19;;;;;;;12.30;5.50;;;;;;;-11.16;82.50;96389.96;107954;1282;35948;-75
2021/12/26 05:37:48;;;;;;;13.50;6.20;;;;;;;-11.15;82.29;96387.31;107942;1283;38382;-75
2021/12/26 05:40:17;;;;;;;12.70;5.50;;;;;;;-11.26;81.78;96389.29;107872;1283;41396;-74
2021/12/26 05:42:45;;;;;;;13.70;5.80;;;;;;;-11.47;81.21;96390.11;107874;1283;41578;-75
2021/12/26 05:45:15;;;;;;;13.70;5.70;;;;;;;-11.61;81.31;96388.55;107883;1284;35616;-74
2021/12/26 05:47:43;;;;;;;10.30;6.00;;;;;;;-11.65;81.70;96388.58;108039;1281;36806;-75
2021/12/26 05:50:14;;;;;;;14.20;6.50;;;;;;;-11.66;81.77;96391.80;107895;1283;38897;-75
2021/12/26 05:52:43;;;;;;;12.90;6.40;;;;;;;-11.65;82.11;96392.64;108079;1282;32437;-75
2021/12/26 05:55:11;;;;;;;13.60;5.30;;;;;;;-11.59;82.55;96393.67;107872;1282;35936;-75
2021/12/26 05:57:39;;;;;;;11.80;5.20;;;;;;;-11.51;82.75;96393.16;107917;1281;35607;-75
2021/12/26 06:00:12;;;;;;;15.40;5.30;;;;;;;-11.43;82.96;96391.00;107918;1284;31027;-75
2021/12/26 06:02:41;;;;;;;14.70;4.50;;;;;;;-11.39;82.92;96394.27;108084;1283;46674;-75
2021/12/26 06:05:10;;;;;;;9.30;4.10;;;;;;;-11.40;82.86;96393.45;107919;1283;41709;-75
2021/12/26 06:07:38;;;;;;;8.00;3.90;;;;;;;-11.38;82.87;96391.28;108021;1283;40396;-75
2021/12/26 06:10:07;;;;;;;6.90;2.90;;;;;;;-11.40;82.71;96389.35;107916;1284;27386;-74
2021/12/26 06:12:36;;;;;;;11.00;4.80;;;;;;;-11.40;82.52;96391.77;108054;1282;37488;-75
2021/12/26 06:15:06;;;;;;;11.70;6.00;;;;;;;-11.49;82.23;96392.30;108004;1284;32158;-74
2021/12/26 06:17:34;;;;;;;23.20;8.80;;;;;;;-11.70;81.62;96391.81;108047;1283;37958;-75
2021/12/26 06:20:03;;;;;;;41.60;20.20;;;;;;;-11.82;81.74;96385.79;108022;1282;42414;-74
2021/12/26 06:22:31;;;;;;;41.70;20.00;;;;;;;-11.81;82.09;96387.20;107974;1283;33763;-74
2021/12/26 06:24:59;;;;;;;114.10;42.00;;;;;;;-11.80;82.28;96391.70;107899;1283;38081;-74
2021/12/26 06:27:28;;;;;;;58.00;23.10;;;;;;;-11.76;82.45;96392.34;107894;1283;44773;-75
2021/12/26 06:29:56;;;;;;;31.00;13.30;;;;;;;-11.76;82.66;96392.50;107944;1283;32831;-75
2021/12/26 06:32:24;;;;;;;67.30;21.20;;;;;;;-11.70;82.94;96392.75;107906;1283;43356;-75
2021/12/26 06:34:52;;;;;;;45.00;16.90;;;;;;;-11.67;82.81;96391.38;107901;1282;35560;-75
2021/12/26 06:37:21;;;;;;;50.60;16.20;;;;;;;-11.68;82.73;96391.23;107906;1282;30951;-75
2021/12/26 06:39:49;;;;;;;42.20;15.00;;;;;;;-11.65;82.96;96391.52;107927;1283;32365;-75
2021/12/26 06:42:17;;;;;;;47.70;17.30;;;;;;;-11.58;83.12;96393.87;107910;1283;29824;-75
2021/12/26 06:44:46;;;;;;;32.00;12.00;;;;;;;-11.51;83.12;96397.60;108044;1281;42633;-75
2021/12/26 06:47:14;;;;;;;24.70;9.80;;;;;;;-11.43;83.16;96402.66;108033;1282;42598;-75
2021/12/26 06:49:44;;;;;;;34.30;11.10;;;;;;;-11.36;83.17;96401.69;107886;1282;40226;-75
2021/12/26 06:52:12;;;;;;;55.60;21.90;;;;;;;-11.31;83.21;96397.72;107990;1282;39683;-75
2021/12/26 06:54:40;;;;;;;65.50;21.90;;;;;;;-11.26;83.04;96398.52;107855;1282;42161;-75
2021/12/26 06:57:12;;;;;;;52.50;19.80;;;;;;;-11.21;83.04;96399.70;107877;1282;39196;-75
2021/12/26 06:59:40;;;;;;;59.30;22.10;;;;;;;-11.17;82.91;96400.45;107920;1281;34980;-75
2021/12/26 07:02:09;;;;;;;50.20;17.80;;;;;;;-11.14;82.97;96400.19;107882;1281;43698;-75
2021/12/26 07:04:38;;;;;;;19.80;7.40;;;;;;;-11.09;82.76;96406.22;107928;1283;29556;-75
2021/12/26 07:07:06;;;;;;;11.70;5.40;;;;;;;-11.11;82.54;96410.84;107984;1283;41592;-74
2021/12/26 07:09:34;;;;;;;11.90;3.90;;;;;;;-11.18;82.21;96415.55;107951;1283;40118;-75
2021/12/26 07:12:03;;;;;;;9.40;3.90;;;;;;;-11.23;82.33;96419.48;108001;1283;34997;-76
2021/12/26 07:14:31;;;;;;;9.60;3.80;;;;;;;-11.18;82.49;96420.41;107997;1283;34161;-75
2021/12/26 07:16:59;;;;;;;10.00;4.40;;;;;;;-11.11;82.65;96421.02;107933;1284;42925;-75
2021/12/26 07:19:28;;;;;;;8.40;4.50;;;;;;;-11.02;82.74;96420.89;108048;1281;38133;-75
2021/12/26 07:21:56;;;;;;;10.70;4.10;;;;;;;-10.93;82.78;96424.27;108086;1283;36561;-74
2021/12/26 07:24:25;;;;;;;10.70;5.20;;;;;;;-10.82;82.86;96421.09;108073;1282;38607;-76
2021/12/26 07:26:53;;;;;;;7.40;4.10;;;;;;;-10.68;82.90;96423.84;108102;1283;34715;-74
2021/12/26 07:29:21;;;;;;;9.60;4.70;;;;;;;-10.60;82.98;96427.77;108063;1282;33911;-74
2021/12/26 07:31:50;;;;;;;6.30;3.50;;;;;;;-10.57;82.67;96431.93;108068;1282;31091;-75
2021/12/26 07:34:18;;;;;;;7.40;4.30;;;;;;;-10.46;82.83;96435.35;107901;1284;178798;-75
2021/12/26 07:36:47;;;;;;;8.10;3.60;;;;;;;-10.31;82.74;96435.73;108083;1283;35037;-75
2021/12/26 07:39:15;;;;;;;10.60;4.50;;;;;;;-10.17;82.72;96434.10;108085;1283;33507;-74
2021/12/26 07:41:43;;;;;;;10.60;4.70;;;;;;;-10.02;82.56;96432.61;108117;1283;30281;-74
2021/12/26 07:44:11;;;;;;;13.50;6.30;;;;;;;-9.89;82.39;96438.08;108025;1282;45426;-75
2021/12/26 07:46:40;;;;;;;11.20;5.10;;;;;;;-9.75;82.27;96442.14;108103;1282;40042;-74
2021/12/26 07:49:08;;;;;;;12.30;5.40;;;;;;;-9.59;82.20;96446.67;108078;1283;38461;-75
2021/12/26 07:51:37;;;;;;;10.50;5.10;;;;;;;-9.44;81.87;96454.55;108091;1283;35979;-75
2021/12/26 07:54:05;;;;;;;10.00;4.70;;;;;;;-9.28;81.84;96452.15;108122;1283;39223;-74
2021/12/26 07:56:33;;;;;;;11.90;5.20;;;;;;;-9.10;81.45;96456.27;108158;1282;44192;-74
2021/12/26 07:59:02;;;;;;;11.10;5.20;;;;;;;-8.98;81.08;96454.36;108169;1282;31388;-74
2021/12/26 08:01:30;;;;;;;17.20;5.70;;;;;;;-8.85;80.95;96454.04;108074;1284;35400;-74
2021/12/26 08:04:01;;;;;;;14.30;6.90;;;;;;;-8.71;80.60;96455.83;108086;1283;34412;-75
2021/12/26 08:06:32;;;;;;;12.50;6.50;;;;;;;-8.64;80.05;96451.29;108075;1282;34730;-75
2021/12/26 08:09:00;;;;;;;21.20;9.60;;;;;;;-8.64;79.86;96453.25;108181;1282;32706;-75
2021/12/26 08:11:29;;;;;;;24.70;10.20;;;;;;;-8.60;79.61;96452.34;108046;1281;34595;-75
2021/12/26 08:13:57;;;;;;;19.10;9.90;;;;;;;-8.46;79.77;96449.30;108090;1283;39175;-75
2021/12/26 08:16:26;;;;;;;27.90;12.60;;;;;;;-8.42;79.39;96446.53;108070;1283;39808;-75
2021/12/26 08:18:55;;;;;;;25.10;12.00;;;;;;;-8.55;79.13;96449.85;108025;1283;38305;-75
2021/12/26 08:21:24;;;;;;;25.80;11.50;;;;;;;-8.59;79.23;96451.95;108092;1283;41802;-75
2021/12/26 08:23:53;;;;;;;32.20;13.50;;;;;;;-8.56;79.40;96455.21;108110;1282;30283;-75
2021/12/26 08:26:22;;;;;;;35.20;14.30;;;;;;;-8.40;79.68;96455.60;108079;1283;38470;-75
2021/12/26 08:28:50;;;;;;;33.80;15.40;;;;;;;-8.36;79.41;96455.75;108082;1283;35963;-75
2021/12/26 08:31:20;;;;;;;23.80;11.00;;;;;;;-8.31;79.47;96458.90;108063;1282;39284;-76
2021/12/26 08:33:48;;;;;;;20.00;11.10;;;;;;;-8.10;79.84;96457.64;108040;1283;36447;-76
2021/12/26 08:36:24;;;;;;;15.70;8.10;;;;;;;-7.97;79.86;96455.67;108151;1278;28246;-76
2021/12/26 08:38:52;;;;;;;18.90;7.40;;;;;;;-7.77;79.76;96454.73;108072;1283;31911;-75
2021/12/26 08:41:23;;;;;;;13.80;6.80;;;;;;;-7.64;79.56;96454.27;108100;1282;29444;-75
2021/12/26 08:43:53;;;;;;;13.70;6.70;;;;;;;-7.66;78.94;96455.55;108099;1283;28899;-75
2021/12/26 08:46:22;;;;;;;16.40;7.10;;;;;;;-7.67;78.74;96454.13;108108;1282;32595;-75
2021/12/26 08:48:51;;;;;;;14.20;7.10;;;;;;;-7.64;78.69;96452.77;108100;1283;41419;-76
2021/12/26 08:51:19;;;;;;;15.40;7.50;;;;;;;-7.57;78.78;96457.48;108095;1284;37296;-76
2021/12/26 08:53:48;;;;;;;14.50;7.10;;;;;;;-7.57;78.73;96457.15;108055;1283;36145;-76
2021/12/26 08:56:17;;;;;;;17.10;7.60;;;;;;;-7.53;78.95;96459.44;108059;1283;43715;-76
2021/12/26 08:58:45;;;;;;;42.60;17.50;;;;;;;-7.49;78.81;96457.45;108098;1283;31346;-75
2021/12/26 09:01:14;;;;;;;30.20;13.40;;;;;;;-7.32;79.27;96456.97;108109;1282;49650;-75
2021/12/26 09:03:44;;;;;;;36.60;14.80;;;;;;;-7.07;79.47;96456.71;108081;1282;36820;-75
2021/12/26 09:06:12;;;;;;;34.10;15.30;;;;;;;-6.88;79.23;96456.48;108098;1284;42886;-75
2021/12/26 09:08:40;;;;;;;24.30;12.00;;;;;;;-6.72;79.32;96459.09;108100;1282;31853;-75
2021/12/26 09:11:09;;;;;;;23.20;8.90;;;;;;;-6.55;79.13;96458.17;108047;1282;42058;-75
2021/12/26 09:13:37;;;;;;;12.20;5.70;;;;;;;-6.42;78.73;96454.80;108089;1282;32036;-75
2021/12/26 09:16:06;;;;;;;12.30;4.90;;;;;;;-6.35;78.16;96451.21;108164;1283;29448;-75
2021/12/26 09:18:34;;;;;;;10.60;4.60;;;;;;;-6.22;77.95;96448.92;108159;1283;38466;-75
2021/12/26 09:21:05;;;;;;;8.60;4.90;;;;;;;-6.19;77.83;96447.02;108184;1283;28625;-75
2021/12/26 09:23:34;;;;;;;8.80;4.20;;;;;;;-6.14;77.72;96445.36;108181;1283;32930;-75
2021/12/26 09:26:02;;;;;;;14.20;5.20;;;;;;;-6.05;77.72;96442.14;108140;1283;38192;-75
2021/12/26 09:28:33;;;;;;;16.30;7.70;;;;;;;-5.88;77.85;96434.64;108069;1283;37333;-74
2021/12/26 09:31:01;;;;;;;27.60;11.10;;;;;;;-5.81;77.46;96430.73;108200;1282;26008;-75
2021/12/26 09:33:30;;;;;;;21.40;8.70;;;;;;;-5.88;76.82;96428.25;108082;1282;35143;-75
2021/12/26 09:35:59;;;;;;;20.00;8.20;;;;;;;-5.91;76.71;96422.76;108048;1282;35037;-75
2021/12/26 09:38:28;;;;;;;15.60;8.30;;;;;;;-5.88;76.69;96426.66;108081;1281;35448;-75
2021/12/26 09:40:57;;;;;;;21.00;10.50;;;;;;;-5.91;76.39;96425.40;108085;1282;33979;-75
2021/12/26 09:43:25;;;;;;;23.20;11.30;;;;;;;-5.90;76.50;96421.94;108108;1283;32475;-74
2021/12/26 09:45:53;;;;;;;16.30;8.50;;;;;;;-5.85;76.61;96421.64;108071;1282;35438;-75
2021/12/26 09:48:22;;;;;;;20.80;10.70;;;;;;;-5.73;76.72;96419.76;108079;1284;39450;-75
2021/12/26 09:50:50;;;;;;;15.30;7.90;;;;;;;-5.56;76.79;96415.62;107926;1282;28951;-75
2021/12/26 09:53:20;;;;;;;21.80;11.30;;;;;;;-5.35;76.80;96413.95;107895;1283;33571;-75
2021/12/26 09:55:48;;;;;;;19.20;9.60;;;;;;;-5.15;76.57;96419.11;107927;1281;31319;-74
2021/12/26 09:58:16;;;;;;;16.60;7.80;;;;;;;-5.05;76.04;96416.31;107912;1282;32185;-74
2021/12/26 10:00:45;;;;;;;13.60;7.30;;;;;;;-5.07;75.55;96416.25;108101;1282;31513;-74
2021/12/26 10:03:22;;;;;;;16.20;8.70;;;;;;;-5.08;75.08;96416.31;107922;1281;30764;-75
2021/12/26 10:06:06;;;;;;;14.00;8.20;;;;;;;-5.18;74.50;96417.47;107894;1283;33390;-74
2021/12/26 10:08:49;;;;;;;17.40;8.00;;;;;;;-5.25;73.80;96417.14;108007;1283;37996;-75
2021/12/26 10:11:19;;;;;;;17.70;9.20;;;;;;;-5.17;74.27;96412.73;108049;1283;38943;-74
2021/12/26 10:13:49;;;;;;;19.40;8.70;;;;;;;-5.09;73.87;96408.80;107918;1283;38669;-75
2021/12/26 10:16:19;;;;;;;17.90;8.60;;;;;;;-5.03;73.48;96405.87;108083;1283;34194;-75
2021/12/26 10:18:48;;;;;;;16.40;8.10;;;;;;;-5.03;72.81;96405.55;107966;1284;33341;-75
2021/12/26 10:21:32;;;;;;;14.20;7.40;;;;;;;-5.06;72.71;96404.84;108116;1284;34976;-75
2021/12/26 10:24:04;;;;;;;19.70;9.10;;;;;;;-4.99;72.81;96404.98;108133;1283;34376;-74
2021/12/26 10:26:35;;;;;;;18.30;8.60;;;;;;;-4.89;72.92;96405.70;107952;1284;39132;-74
2021/12/26 10:29:27;;;;;;;19.40;9.50;;;;;;;-4.68;72.98;96401.58;107946;1283;39782;-74
2021/12/26 10:32:06;;;;;;;15.20;8.00;;;;;;;-4.57;72.72;96400.15;108033;1283;36632;-75
2021/12/26 10:34:38;;;;;;;18.70;9.10;;;;;;;-4.47;72.59;96405.16;107940;1281;38942;-75
2021/12/26 10:37:10;;;;;;;14.50;7.40;;;;;;;-4.36;72.05;96403.83;107933;1283;31805;-75
2021/12/26 10:39:42;;;;;;;15.10;7.30;;;;;;;-4.22;72.33;96400.65;108125;1282;30615;-75
2021/12/26 10:42:16;;;;;;;14.70;7.80;;;;;;;-4.12;71.56;96403.48;107972;1284;36901;-75
2021/12/26 10:44:46;;;;;;;19.70;8.60;;;;;;;-4.17;71.25;96401.96;107896;1283;35310;-75
2021/12/26 10:47:16;;;;;;;23.10;10.70;;;;;;;-4.18;71.00;96402.84;108100;1284;33684;-75
2021/12/26 10:49:48;;;;;;;17.20;9.50;;;;;;;-4.15;70.59;96405.04;107894;1283;37250;-75
2021/12/26 10:52:22;;;;;;;21.80;10.70;;;;;;;-4.19;70.00;96404.78;107931;1284;38575;-75
2021/12/26 10:54:57;;;;;;;20.70;10.20;;;;;;;-4.16;70.11;96407.89;108116;1283;36010;-75
2021/12/26 10:57:31;;;;;;;23.70;12.90;;;;;;;-4.12;69.33;96409.02;108130;1283;31183;-75
2021/12/26 11:00:05;;;;;;;28.90;13.60;;;;;;;-4.17;69.16;96409.57;108089;1283;35730;-75
2021/12/26 11:02:35;;;;;;;28.70;13.90;;;;;;;-4.22;68.76;96411.25;107998;1284;31548;-75
2021/12/26 11:05:07;;;;;;;25.30;13.00;;;;;;;-4.19;68.87;96412.23;107998;1284;37899;-75
2021/12/26 11:07:57;;;;;;;25.60;14.20;;;;;;;-4.04;68.65;96411.27;107978;1284;30908;-75
2021/12/26 11:10:28;;;;;;;23.50;13.30;;;;;;;-4.15;67.49;96409.38;108059;1283;33214;-75
2021/12/26 11:12:59;;;;;;;30.50;14.70;;;;;;;-4.16;67.64;96408.09;108113;1283;32499;-75
2021/12/26 11:15:30;;;;;;;28.40;15.80;;;;;;;-4.02;68.16;96406.38;106638;1282;1993065;-74
2021/12/26 11:18:01;;;;;;;42.20;19.60;;;;;;;-3.90;68.74;96400.14;108105;1283;39358;-75
2021/12/26 11:20:35;;;;;;;32.30;18.80;;;;;;;-3.68;69.04;96397.65;108053;1283;36851;-75
2021/12/26 11:23:09;;;;;;;34.90;18.60;;;;;;;-3.50;69.20;96393.32;108151;1283;30034;-74
2021/12/26 11:25:41;;;;;;;37.20;19.20;;;;;;;-3.46;68.28;96393.69;108114;1282;32880;-74